createdAt,value
2019-02-15T00:00:53.574Z,102821.52
2019-02-15T00:03:23.862Z,102814.47
2019-02-15T00:05:54.363Z,102808.72
2019-02-15T00:08:24.667Z,102810.89
2019-02-15T00:10:55.060Z,102804.26
2019-02-15T00:13:25.836Z,102798.94
2019-02-15T00:15:56.245Z,102801.57
2019-02-15T00:18:30.097Z,102794.92
2019-02-15T00:21:20.460Z,102788.66
2019-02-15T00:23:50.788Z,102789.47
2019-02-15T00:26:21.990Z,102795.63
2019-02-15T00:28:52.442Z,102793.83
2019-02-15T00:31:22.843Z,102794.22
2019-02-15T00:33:53.167Z,102798.16
2019-02-15T00:36:23.447Z,102794.09
2019-02-15T00:38:53.751Z,102786.57
2019-02-15T00:41:24.006Z,102785.64
2019-02-15T00:43:54.351Z,102786.95
2019-02-15T00:46:29.182Z,102793.50
2019-02-15T00:49:00.326Z,102793.50
2019-02-15T00:51:44.259Z,102796.17
2019-02-15T00:54:16.214Z,102787.36
2019-02-15T00:56:48.139Z,102794.73
2019-02-15T00:59:29.347Z,102794.71
2019-02-15T01:02:03.956Z,102791.14
2019-02-15T01:04:44.924Z,102784.92
2019-02-15T01:07:16.826Z,102786.21
2019-02-15T01:09:48.801Z,102781.35
2019-02-15T01:12:23.743Z,102781.30
2019-02-15T01:14:54.028Z,102782.67
2019-02-15T01:17:24.298Z,102785.66
2019-02-15T01:19:54.648Z,102781.61
2019-02-15T01:22:24.898Z,102774.96
2019-02-15T01:24:55.183Z,102767.37
2019-02-15T01:27:27.902Z,102766.82
2019-02-15T01:30:02.741Z,102764.57
2019-02-15T01:32:34.679Z,102761.02
2019-02-15T01:35:15.771Z,102755.74
2019-02-15T01:37:57.793Z,102761.02
2019-02-15T01:40:32.833Z,102752.69
2019-02-15T01:43:04.753Z,102749.61
2019-02-15T01:45:36.683Z,102744.77
2019-02-15T01:48:06.948Z,102750.41
2019-02-15T01:50:38.304Z,102750.38
2019-02-15T01:53:08.579Z,102749.00
2019-02-15T01:55:38.859Z,102742.76
2019-02-15T01:58:09.145Z,102740.44
2019-02-15T02:00:39.530Z,102740.73
2019-02-15T02:03:09.782Z,102740.55
2019-02-15T02:05:40.075Z,102737.28
2019-02-15T02:08:11.992Z,102738.87
2019-02-15T02:10:42.293Z,102732.72
2019-02-15T02:13:12.543Z,102731.50
2019-02-15T02:15:42.825Z,102728.45
2019-02-15T02:18:13.081Z,102732.75
2019-02-15T02:20:43.729Z,102726.64
2019-02-15T02:23:13.983Z,102724.38
2019-02-15T02:25:44.266Z,102721.27
2019-02-15T02:28:15.418Z,102716.94
2019-02-15T02:30:45.696Z,102721.36
2019-02-15T02:33:15.970Z,102717.81
2019-02-15T02:38:22.465Z,102707.70
2019-02-15T02:40:52.757Z,102706.80
2019-02-15T02:43:23.046Z,102709.41
2019-02-15T02:45:53.324Z,102697.50
2019-02-15T02:48:23.610Z,102698.38
2019-02-15T02:50:53.886Z,102697.87
2019-02-15T02:53:24.185Z,102694.33
2019-02-15T02:55:54.524Z,102699.54
2019-02-15T02:58:24.781Z,102695.48
2019-02-15T03:00:55.242Z,102691.83
2019-02-15T03:03:25.513Z,102695.69
2019-02-15T03:05:55.788Z,102701.32
2019-02-15T03:08:26.044Z,102692.91
2019-02-15T03:10:56.397Z,102701.55
2019-02-15T03:13:26.665Z,102701.44
2019-02-15T03:15:56.933Z,102700.15
2019-02-15T03:18:27.186Z,102701.88
2019-02-15T03:20:57.475Z,102699.59
2019-02-15T03:23:27.743Z,102701.52
2019-02-15T03:25:58.073Z,102697.02
2019-02-15T03:28:28.319Z,102699.94
2019-02-15T03:30:58.597Z,102698.22
2019-02-15T03:33:28.868Z,102699.02
2019-02-15T03:36:00.790Z,102694.95
2019-02-15T03:38:35.383Z,102700.13
2019-02-15T03:41:07.317Z,102707.19
2019-02-15T03:43:37.601Z,102713.73
2019-02-15T03:46:07.856Z,102716.94
2019-02-15T03:48:38.142Z,102717.94
2019-02-15T03:51:08.418Z,102710.00
2019-02-15T03:53:38.695Z,102713.86
2019-02-15T03:56:08.971Z,102697.95
2019-02-15T03:58:39.212Z,102701.23
2019-02-15T04:01:10.474Z,102708.60
2019-02-15T04:03:40.717Z,102713.70
2019-02-15T04:06:12.108Z,102712.23
2019-02-15T04:08:44.407Z,102719.12
2019-02-15T04:11:14.662Z,102709.48
2019-02-15T04:13:44.923Z,102719.52
2019-02-15T04:16:15.206Z,102722.94
2019-02-15T04:18:45.460Z,102721.53
2019-02-15T04:21:15.741Z,102726.36
2019-02-15T04:23:45.989Z,102727.66
2019-02-15T04:26:16.295Z,102738.53
2019-02-15T04:28:46.560Z,102729.67
2019-02-15T04:31:16.831Z,102728.73
2019-02-15T04:33:47.228Z,102729.95
2019-02-15T04:36:17.499Z,102721.14
2019-02-15T04:38:47.780Z,102717.59
2019-02-15T04:41:18.042Z,102717.30
2019-02-15T04:43:48.306Z,102722.79
2019-02-15T04:46:18.609Z,102721.37
2019-02-15T04:48:48.885Z,102719.36
2019-02-15T04:51:19.173Z,102713.08
2019-02-15T04:53:49.446Z,102709.62
2019-02-15T04:56:19.709Z,102712.85
2019-02-15T04:58:49.995Z,102714.33
2019-02-15T05:01:20.265Z,102709.19
2019-02-15T05:03:50.614Z,102702.47
2019-02-15T05:06:20.891Z,102705.36
2019-02-15T05:08:51.235Z,102701.69
2019-02-15T05:11:21.543Z,102700.31
2019-02-15T05:13:51.801Z,102700.93
2019-02-15T05:16:22.097Z,102701.91
2019-02-15T05:18:52.377Z,102703.00
2019-02-15T05:21:22.642Z,102698.30
2019-02-15T05:23:53.011Z,102701.33
2019-02-15T05:26:23.297Z,102695.85
2019-02-15T05:28:54.383Z,102699.19
2019-02-15T05:31:24.635Z,102694.92
2019-02-15T05:33:54.906Z,102694.97
2019-02-15T05:36:25.200Z,102692.50
2019-02-15T05:38:55.454Z,102704.42
2019-02-15T05:41:26.107Z,102707.20
2019-02-15T05:43:56.361Z,102706.09
2019-02-15T05:46:26.644Z,102699.58
2019-02-15T05:48:56.913Z,102700.61
2019-02-15T05:51:27.187Z,102704.59
2019-02-15T05:53:57.502Z,102701.00
2019-02-15T05:56:27.762Z,102699.51
2019-02-15T05:58:58.059Z,102688.89
2019-02-15T06:01:28.765Z,102681.98
2019-02-15T06:03:59.149Z,102686.31
2019-02-15T06:06:30.977Z,102688.07
2019-02-15T06:09:01.251Z,102688.47
2019-02-15T06:11:32.607Z,102673.62
2019-02-15T06:14:02.865Z,102683.50
2019-02-15T06:16:33.135Z,102683.13
2019-02-15T06:19:03.397Z,102677.98
2019-02-15T06:21:33.662Z,102678.89
2019-02-15T06:24:03.920Z,102675.89
2019-02-15T06:26:34.205Z,102687.81
2019-02-15T06:29:05.264Z,102689.66
2019-02-15T06:31:35.535Z,102700.27
2019-02-15T06:34:05.908Z,102703.42
2019-02-15T06:36:36.598Z,102704.80
2019-02-15T06:39:07.369Z,102702.27
2019-02-15T06:41:37.682Z,102710.26
2019-02-15T06:44:07.968Z,102716.92
2019-02-15T06:46:38.235Z,102724.08
2019-02-15T06:49:08.508Z,102716.81
2019-02-15T06:51:38.778Z,102708.15
2019-02-15T06:54:09.058Z,102711.27
2019-02-15T06:56:39.362Z,102711.39
2019-02-15T06:59:20.135Z,102718.55
2019-02-15T07:01:52.047Z,102722.10
2019-02-15T07:04:26.986Z,102717.91
2019-02-15T07:06:57.238Z,102721.10
2019-02-15T07:09:27.549Z,102715.53
2019-02-15T07:11:57.775Z,102716.98
2019-02-15T07:14:28.035Z,102720.13
2019-02-15T07:16:58.296Z,102709.78
2019-02-15T07:19:28.558Z,102715.17
2019-02-15T07:21:58.805Z,102712.30
2019-02-15T07:24:29.057Z,102710.67
2019-02-15T07:26:59.325Z,102717.44
2019-02-15T07:29:30.383Z,102710.53
2019-02-15T07:32:00.630Z,102715.99
2019-02-15T07:34:30.894Z,102726.24
2019-02-15T07:37:01.206Z,102736.63
2019-02-15T07:39:31.491Z,102735.52
2019-02-15T07:42:01.778Z,102730.80
2019-02-15T07:44:32.103Z,102739.78
2019-02-15T07:47:02.442Z,102730.59
2019-02-15T07:49:32.749Z,102732.88
2019-02-15T07:52:03.011Z,102740.11
2019-02-15T07:54:33.256Z,102732.82
2019-02-15T07:57:03.512Z,102726.87
2019-02-15T07:59:33.795Z,102723.91
2019-02-15T08:02:04.066Z,102725.36
2019-02-15T08:04:34.335Z,102722.13
2019-02-15T08:07:04.595Z,102722.75
2019-02-15T08:09:34.846Z,102721.57
2019-02-15T08:12:05.404Z,102721.30
2019-02-15T08:14:35.904Z,102726.74
2019-02-15T08:17:06.115Z,102735.39
2019-02-15T08:19:36.395Z,102741.84
2019-02-15T08:22:06.679Z,102731.47
2019-02-15T08:24:37.060Z,102734.63
2019-02-15T08:27:07.395Z,102740.08
2019-02-15T08:29:43.369Z,102740.06
2019-02-15T08:32:14.562Z,102743.18
2019-02-15T08:34:45.194Z,102732.58
2019-02-15T08:37:15.759Z,102736.50
2019-02-15T08:39:46.201Z,102721.43
2019-02-15T08:42:16.523Z,102729.86
2019-02-15T08:44:46.809Z,102722.80
2019-02-15T08:47:17.140Z,102723.30
2019-02-15T08:49:47.739Z,102722.36
2019-02-15T08:52:18.431Z,102711.50
2019-02-15T08:54:48.762Z,102715.84
2019-02-15T08:57:19.019Z,102717.95
2019-02-15T08:59:49.389Z,102724.41
2019-02-15T09:02:21.424Z,102729.92
2019-02-15T09:04:53.299Z,102728.16
2019-02-15T09:07:23.754Z,102727.89
2019-02-15T09:09:54.053Z,102727.41
2019-02-15T09:12:24.313Z,102720.00
2019-02-15T09:14:54.668Z,102722.98
2019-02-15T09:17:25.113Z,102726.27
2019-02-15T09:19:55.419Z,102726.61
2019-02-15T09:22:25.737Z,102720.41
2019-02-15T09:24:56.090Z,102724.02
2019-02-15T09:27:28.057Z,102729.98
2019-02-15T09:29:59.166Z,102735.75
2019-02-15T09:32:29.573Z,102739.75
2019-02-15T09:34:59.854Z,102747.08
2019-02-15T09:37:30.135Z,102747.78
2019-02-15T09:40:00.421Z,102753.59
2019-02-15T09:42:30.678Z,102756.81
2019-02-15T09:53:08.976Z,102767.05
2019-02-15T09:55:39.250Z,102766.94
2019-02-15T09:58:09.551Z,102767.68
2019-02-15T10:00:39.826Z,102769.30
2019-02-15T10:03:10.095Z,102762.87
2019-02-15T10:05:40.343Z,102762.41
2019-02-15T10:08:10.732Z,102760.59
2019-02-15T10:10:42.119Z,102768.07
2019-02-15T10:13:12.388Z,102769.52
2019-02-15T10:15:42.636Z,102772.38
2019-02-15T10:18:12.922Z,102763.95
2019-02-15T10:20:43.281Z,102756.12
2019-02-15T10:23:13.559Z,102762.41
2019-02-15T10:25:43.872Z,102755.27
2019-02-15T10:28:14.224Z,102758.95
2019-02-15T10:30:45.291Z,102763.33
2019-02-15T10:33:15.757Z,102767.00
2019-02-15T10:35:46.074Z,102752.64
2019-02-15T10:38:16.430Z,102763.30
2019-02-15T10:40:46.693Z,102747.91
2019-02-15T10:43:17.036Z,102747.45
2019-02-15T10:45:47.485Z,102750.59
2019-02-15T10:48:17.752Z,102764.35
2019-02-15T10:50:48.056Z,102763.96
2019-02-15T10:53:18.271Z,102759.89
2019-02-15T10:55:48.711Z,102764.25
2019-02-15T10:58:18.967Z,102749.09
2019-02-15T11:00:49.406Z,102749.12
2019-02-15T11:03:19.655Z,102754.84
2019-02-15T11:05:49.920Z,102742.19
2019-02-15T11:08:20.181Z,102745.67
2019-02-15T11:10:50.456Z,102743.39
2019-02-15T11:13:20.724Z,102742.82
2019-02-15T11:15:52.682Z,102745.47
2019-02-15T11:18:22.955Z,102746.88
2019-02-15T11:20:53.241Z,102743.31
2019-02-15T11:23:23.669Z,102747.31
2019-02-15T11:25:53.948Z,102745.01
2019-02-15T11:28:24.157Z,102756.92
2019-02-15T11:30:54.414Z,102751.72
2019-02-15T11:33:24.660Z,102760.03
2019-02-15T11:35:54.946Z,102758.20
2019-02-15T11:38:26.654Z,102757.41
2019-02-15T11:40:56.898Z,102750.20
2019-02-15T11:43:27.352Z,102750.25
2019-02-15T11:45:57.723Z,102740.75
2019-02-15T11:48:29.454Z,102746.27
2019-02-15T11:50:59.996Z,102735.70
2019-02-15T11:53:30.267Z,102743.20
2019-02-15T11:56:01.392Z,102751.16
2019-02-15T11:58:31.667Z,102747.28
2019-02-15T12:01:01.917Z,102750.00
2019-02-15T12:03:33.680Z,102749.81
2019-02-15T12:06:04.235Z,102747.14
2019-02-15T12:08:34.507Z,102747.28
2019-02-15T12:11:04.868Z,102741.91
2019-02-15T12:13:35.197Z,102741.09
2019-02-15T12:16:05.465Z,102739.28
2019-02-15T12:18:35.723Z,102739.84
2019-02-15T12:21:06.072Z,102741.55
2019-02-15T12:23:37.966Z,102747.66
2019-02-15T12:26:08.303Z,102745.58
2019-02-15T12:28:38.568Z,102744.25
2019-02-15T12:31:08.826Z,102743.79
2019-02-15T12:33:39.103Z,102740.76
2019-02-15T12:36:09.377Z,102748.23
2019-02-15T12:38:39.710Z,102736.77
2019-02-15T12:41:09.986Z,102737.67
2019-02-15T12:43:40.310Z,102742.54
2019-02-15T12:46:10.765Z,102739.52
2019-02-15T12:48:41.058Z,102736.03
2019-02-15T12:51:11.417Z,102734.23
2019-02-15T12:53:41.681Z,102720.98
2019-02-15T12:56:11.949Z,102725.46
2019-02-15T12:58:42.305Z,102715.67
2019-02-15T13:01:12.566Z,102726.35
2019-02-15T13:03:42.940Z,102721.51
2019-02-15T13:06:13.308Z,102720.63
2019-02-15T13:08:43.671Z,102725.88
2019-02-15T13:11:14.598Z,102724.55
2019-02-15T13:13:45.023Z,102717.48
2019-02-15T13:16:15.272Z,102712.11
2019-02-15T13:18:45.582Z,102715.95
2019-02-15T13:21:15.909Z,102715.51
2019-02-15T13:23:46.193Z,102709.81
2019-02-15T13:26:16.528Z,102701.02
2019-02-15T13:28:46.841Z,102701.98
2019-02-15T13:31:17.107Z,102690.48
2019-02-15T13:33:47.383Z,102688.28
2019-02-15T13:36:17.781Z,102692.31
2019-02-15T13:38:48.062Z,102686.58
2019-02-15T13:41:18.314Z,102684.81
2019-02-15T13:43:48.931Z,102683.06
2019-02-15T13:46:19.310Z,102678.65
2019-02-15T13:48:49.657Z,102681.28
2019-02-15T13:51:20.002Z,102689.25
2019-02-15T13:53:50.298Z,102687.02
2019-02-15T13:56:20.683Z,102685.25
2019-02-15T13:58:50.968Z,102678.65
2019-02-15T14:01:21.301Z,102678.63
2019-02-15T14:03:51.637Z,102680.39
2019-02-15T14:06:23.066Z,102676.42
2019-02-15T14:08:54.418Z,102676.89
2019-02-15T14:11:28.656Z,102664.95
2019-02-15T14:13:59.075Z,102667.16
2019-02-15T14:16:29.422Z,102667.59
2019-02-15T14:18:59.734Z,102665.38
2019-02-15T14:21:30.009Z,102665.80
2019-02-15T14:24:00.352Z,102660.07
2019-02-15T14:26:32.251Z,102653.82
2019-02-15T14:29:02.578Z,102657.37
2019-02-15T14:31:33.865Z,102649.88
2019-02-15T14:34:05.195Z,102653.42
2019-02-15T14:36:35.724Z,102652.95
2019-02-15T14:39:07.861Z,102653.00
2019-02-15T14:41:38.220Z,102656.09
2019-02-15T14:44:08.815Z,102650.34
2019-02-15T14:46:43.442Z,102648.13
2019-02-15T14:49:14.227Z,102648.15
2019-02-15T14:51:44.582Z,102650.79
2019-02-15T14:54:14.841Z,102640.61
2019-02-15T14:56:45.108Z,102637.97
2019-02-15T14:59:15.379Z,102640.19
2019-02-15T15:01:45.910Z,102639.31
2019-02-15T15:04:16.171Z,102641.06
2019-02-15T15:06:46.735Z,102641.06
2019-02-15T15:09:17.607Z,102632.67
2019-02-15T15:11:48.021Z,102631.79
2019-02-15T15:14:18.257Z,102635.77
2019-02-15T15:16:48.568Z,102641.50
2019-02-15T15:19:18.923Z,102634.86
2019-02-15T15:21:49.308Z,102635.75
2019-02-15T15:24:25.173Z,102636.62
2019-02-15T15:26:55.734Z,102633.98
2019-02-15T15:29:34.563Z,102634.82
2019-02-15T15:32:06.938Z,102633.50
2019-02-15T15:38:22.451Z,102631.69
2019-02-15T15:41:01.572Z,102635.23
2019-02-15T15:43:31.906Z,102628.17
2019-02-15T15:46:02.236Z,102627.28
2019-02-15T15:48:32.658Z,102619.31
2019-02-15T15:51:02.939Z,102624.17
2019-02-15T15:53:33.323Z,102614.00
2019-02-15T15:56:03.622Z,102617.08
2019-02-15T15:58:33.990Z,102624.95
2019-02-15T16:01:04.375Z,102626.61
2019-02-15T16:03:34.789Z,102623.05
2019-02-15T16:06:05.109Z,102621.22
2019-02-15T16:08:35.536Z,102619.00
2019-02-15T16:11:05.805Z,102618.52
2019-02-15T16:13:39.975Z,102617.58
2019-02-15T16:16:10.355Z,102617.55
2019-02-15T16:18:40.701Z,102625.38
2019-02-15T16:21:11.182Z,102622.20
2019-02-15T16:23:41.449Z,102619.95
2019-02-15T16:26:11.927Z,102615.06
2019-02-15T16:28:42.295Z,102624.66
2019-02-15T16:31:12.576Z,102621.50
2019-02-15T16:33:42.961Z,102617.80
2019-02-15T16:36:13.252Z,102621.11
2019-02-15T16:38:43.563Z,102622.71
2019-02-15T16:41:13.850Z,102613.80
2019-02-15T16:43:44.105Z,102618.63
2019-02-15T16:46:14.440Z,102617.73
2019-02-15T16:48:44.597Z,102619.00
2019-02-15T16:51:14.902Z,102624.27
2019-02-15T16:53:45.177Z,102630.12
2019-02-15T16:56:15.507Z,102625.59
2019-02-15T16:58:45.844Z,102622.87
2019-02-15T17:01:16.238Z,102624.16
2019-02-15T17:03:46.607Z,102627.14
2019-02-15T17:06:23.413Z,102629.36
2019-02-15T17:08:55.495Z,102627.24
2019-02-15T17:11:30.304Z,102627.66
2019-02-15T17:14:07.640Z,102625.65
2019-02-15T17:16:39.299Z,102622.40
2019-02-15T17:19:09.655Z,102615.22
2019-02-15T17:21:40.149Z,102612.93
2019-02-15T17:24:11.554Z,102615.91
2019-02-15T17:26:41.812Z,102616.38
2019-02-15T17:29:12.167Z,102619.05
2019-02-15T17:31:42.599Z,102620.40
2019-02-15T17:34:13.735Z,102618.73
2019-02-15T17:36:44.128Z,102622.84
2019-02-15T17:39:21.924Z,102627.98
2019-02-15T17:41:53.014Z,102623.16
2019-02-15T17:44:23.287Z,102620.58
2019-02-15T17:46:53.751Z,102620.20
2019-02-15T17:49:24.321Z,102613.52
2019-02-15T17:51:54.767Z,102610.92
2019-02-15T17:54:25.172Z,102613.13
2019-02-15T17:56:55.591Z,102611.23
2019-02-15T17:59:26.098Z,102612.44
2019-02-15T18:01:56.492Z,102604.77
2019-02-15T18:04:26.857Z,102605.85
2019-02-15T18:06:58.857Z,102605.55
2019-02-15T18:09:29.241Z,102606.37
2019-02-15T18:12:00.604Z,102603.67
2019-02-15T18:14:30.876Z,102607.94
2019-02-15T18:17:01.310Z,102603.67
2019-02-15T18:19:32.148Z,102610.81
2019-02-15T18:22:03.106Z,102606.37
2019-02-15T18:24:34.802Z,102604.39
2019-02-15T18:27:23.528Z,102603.91
2019-02-15T18:29:55.581Z,102603.59
2019-02-15T18:32:27.426Z,102607.53
2019-02-15T18:34:58.614Z,102598.95
2019-02-15T18:45:28.794Z,102592.50
2019-02-15T18:48:00.985Z,102588.00
2019-02-15T18:50:37.181Z,102599.01
2019-02-15T18:53:07.612Z,102598.44
2019-02-15T18:55:38.093Z,102606.08
2019-02-15T18:58:09.714Z,102600.16
2019-02-15T19:00:41.816Z,102604.50
2019-02-15T19:03:12.846Z,102606.70
2019-02-15T19:05:43.433Z,102600.73
2019-02-15T19:08:13.766Z,102602.17
2019-02-15T19:10:44.585Z,102603.73
2019-02-15T19:13:14.839Z,102607.25
2019-02-15T19:15:46.039Z,102618.61
2019-02-15T19:18:16.405Z,102623.19
2019-02-15T19:20:47.076Z,102617.32
2019-02-15T19:23:20.747Z,102612.19
2019-02-15T19:25:53.920Z,102610.00
2019-02-15T19:29:09.846Z,102604.80
2019-02-15T19:31:41.675Z,102607.97
2019-02-15T19:34:12.937Z,102606.67
2019-02-15T19:36:46.402Z,102607.20
2019-02-15T19:39:16.878Z,102606.14
2019-02-15T19:41:50.363Z,102604.16
2019-02-15T19:44:25.213Z,102605.23
2019-02-15T19:47:00.855Z,102600.32
2019-02-15T19:49:38.568Z,102607.87
2019-02-15T19:52:08.935Z,102606.55
2019-02-15T19:54:47.355Z,102606.39
2019-02-15T19:57:19.298Z,102599.64
2019-02-15T20:04:16.339Z,102610.44
2019-02-15T20:06:51.270Z,102603.58
2019-02-15T20:09:27.345Z,102607.47
2019-02-15T20:12:00.794Z,102612.63
2019-02-15T20:14:38.368Z,102602.20
2019-02-15T20:17:11.497Z,102600.73
2019-02-15T20:19:48.667Z,102606.54
2019-02-15T20:26:24.209Z,102597.25
2019-02-15T20:28:57.259Z,102597.96
2019-02-15T20:31:28.399Z,102598.79
2019-02-15T20:33:58.769Z,102604.15
2019-02-15T20:36:35.227Z,102597.33
2019-02-15T20:39:06.610Z,102598.24
2019-02-15T20:41:46.135Z,102602.56
2019-02-15T20:44:20.979Z,102594.31
2019-02-15T20:46:54.635Z,102592.13
2019-02-15T20:49:27.883Z,102594.70
2019-02-15T20:51:58.519Z,102591.31
2019-02-15T20:54:30.100Z,102601.75
2019-02-15T20:57:04.622Z,102593.00
2019-02-15T20:59:38.022Z,102589.45
2019-02-15T21:02:11.466Z,102593.88
2019-02-15T21:04:42.904Z,102582.12
2019-02-15T21:07:15.770Z,102590.27
2019-02-15T21:09:48.443Z,102577.34
2019-02-15T21:12:20.851Z,102579.36
2019-02-15T21:14:53.424Z,102575.41
2019-02-15T21:17:23.682Z,102582.80
2019-02-15T21:19:54.287Z,102582.11
2019-02-15T21:22:25.657Z,102585.73
2019-02-15T21:24:57.571Z,102582.28
2019-02-15T21:27:29.037Z,102584.62
2019-02-15T21:30:11.828Z,102576.03
2019-02-15T21:32:42.685Z,102577.93
2019-02-15T21:35:13.280Z,102578.70
2019-02-15T21:37:43.584Z,102584.51
2019-02-15T21:40:18.240Z,102594.38
2019-02-15T21:42:49.015Z,102586.70
2019-02-15T21:45:20.654Z,102593.66
2019-02-15T21:47:56.651Z,102589.23
2019-02-15T21:50:29.958Z,102584.38
2019-02-15T21:53:00.603Z,102589.23
2019-02-15T21:55:32.501Z,102583.97
2019-02-15T21:58:03.661Z,102583.59
2019-02-15T22:00:34.486Z,102582.52
2019-02-15T22:03:05.709Z,102578.03
2019-02-15T22:05:37.809Z,102576.67
2019-02-15T22:08:11.939Z,102577.93
2019-02-15T22:10:43.909Z,102570.17
2019-02-15T22:13:16.865Z,102571.14
2019-02-15T22:15:47.834Z,102573.47
2019-02-15T22:18:20.896Z,102566.23
2019-02-15T22:20:51.797Z,102571.09
2019-02-15T22:23:22.390Z,102565.75
2019-02-15T22:25:52.731Z,102569.19
2019-02-15T22:28:25.606Z,102570.45
2019-02-15T22:34:57.926Z,102570.30
2019-02-15T22:37:29.704Z,102562.76
2019-02-15T22:40:04.273Z,102556.59
2019-02-15T22:42:36.993Z,102559.21
2019-02-15T22:45:08.437Z,102555.75
2019-02-15T22:47:38.733Z,102553.24
2019-02-15T22:50:11.143Z,102553.62
2019-02-15T22:52:42.037Z,102549.58
2019-02-15T22:55:13.303Z,102547.63
2019-02-15T22:57:43.620Z,102553.25
2019-02-15T23:00:48.730Z,102551.20
2019-02-15T23:03:21.354Z,102547.20
2019-02-15T23:05:53.446Z,102550.86
2019-02-15T23:08:27.220Z,102548.52
2019-02-15T23:10:58.313Z,102551.09
2019-02-15T23:13:28.594Z,102548.57
2019-02-15T23:15:59.175Z,102549.27
2019-02-15T23:18:29.589Z,102549.33
2019-02-15T23:20:59.921Z,102550.10
2019-02-15T23:23:30.189Z,102552.77
2019-02-15T23:26:00.719Z,102552.89
2019-02-15T23:28:31.203Z,102547.92
2019-02-15T23:31:01.750Z,102541.97
2019-02-15T23:33:32.384Z,102543.38
2019-02-15T23:36:02.897Z,102542.78
2019-02-15T23:38:33.303Z,102543.65
2019-02-15T23:41:03.792Z,102538.73
2019-02-15T23:43:34.388Z,102549.44
2019-02-15T23:46:04.889Z,102532.33
2019-02-15T23:48:35.170Z,102539.27
2019-02-15T23:51:05.646Z,102529.88
2019-02-15T23:53:36.520Z,102538.67
2019-02-15T23:56:07.143Z,102532.12
2019-02-15T23:58:37.831Z,102529.88
